Churchill Airport
CYYQ : now visible

Airfield :











YOU CAN JOIN US ON...

 
LOGIN :

Register | Disclaimer

   EN    FR    IT 

 









Legend :    VFR   Marginal VFR   IFR   Intensive IFR   Very Intensive IFR
Visi :
Ceiling :
>= 8 km
>= 3000ft
5 to 8 km
1000 to 3000 ft
1500m to 5 km
500 to 1000 ft
800 to 1500m
200 to 500 ft
< 800m
< 200 ft
Symbols :   Thunderstorms  Fog  Heavy snow  Heavy precipitations  Wind > 20 kt






- Airport Elevation : 94 ft
- IATA code : YYQ


CYYQ - Churchill

CURRENT METAR :
  • 191800Z 21009KT 15SM FEW025 BKN250 20/12 A3002 RMK CU1CI5 CU TR SLP169 DENSITY ALT 600FT

EXPIRED METARs :
  • 191700Z 23007KT 170V240 15SM FEW020 SCT250 18/11 A3004 RMK CU1CI4 CU TR SLP176 DENSITY ALT 400FT
  • 191600Z 18007KT 15SM FEW005 BKN250 16/12 A3007 RMK SC1CI4 SLP184 DENSITY ALT 100FT

TAF TAF CYYQ
Valid from the 19 at 18:00 until the 20 at 18:00 UTC


191740Z 1918/2018 23008KT P6SM SCT030
BECMG 1918/1920 21012KT
FM200000 21010KT P6SM SCT090
FM200600 21012KT P6SM BKN090
TEMPO 2006/2012 P6SM -SHRA
FM201200 21012KT P6SM SCT090
TEMPO 2012/2015 P6SM VCSH BKN090 RMK NXT FCST BY 200000Z
CZWG FIR / North America



MET'MAP, your aeronautical weather chart ! - Copyright ORBIFLY December 2007 - Disclaimer

ORBIFLY MET'MAP TEAM :

Programming & Development : Alexandra Zaïnal
Original concept : Baudouin d'Aumeries
Technical & hardware support : Manuel Goepfert
Assistance : Marc-Olivier Méhu




SOURCES & CREDITS :

   NOAA       Earth
Advisory